Colorado Springs, Colorado
Current Conditions -  °F | °C
As of 7:54 PM on Saturday 24 Jan 2015 (Local Time) from KCOS Reporting Station
Scattered Clouds Scattered Clouds  
Wind Chill: 33°   Ceiling: Unl
Heat Index: 40°   Visibility: 10mi
Dew Point: 23°   Wind: 12mph
Humidity: 51%   Direction: 360°N
Pressure: 30.09"   Gusts: NA
Location:  38.83°N, 104.82°W
Report Text: KCOS 250254Z 36010KT 10SM SCT240 04/M05 A3009 RMK AO2 SLP201 T00441050 53017 $
Loading
Personal Weather Stations






























Interactive Weather Map New forecast layout! Learn more

10-Day Weather Forecast

Advertisements
Track Severe Weather on mobile